Pfugerville's Hourly Summary for Monday, April 17, 2017
Hour Temp
(f)
RH
(%)
Solar Rad.
(MJ/m2)
Rainfall
(in)
Wind
(mph)
4/17/2017 12:00 AM 68 100 0 0 3.03
4/17/2017 1:00 AM 68 100 0 0 3.62
4/17/2017 2:00 AM 69 100 0 0 5.1
4/17/2017 3:00 AM 69 100 0 0 6.95
4/17/2017 4:00 AM 69 100 0 0 6.35
4/17/2017 5:00 AM 68 100 0 0 2.88
4/17/2017 6:00 AM 67 100 0 0 0.75
4/17/2017 7:00 AM 66 100 0 0 1.05
4/17/2017 8:00 AM 66 100 0.12 0 1.72
4/17/2017 9:00 AM 67 100 0.37 0 1.8
4/17/2017 10:00 AM 69 100 0.81 0 3.77
4/17/2017 11:00 AM 72 100 1.09 0 4.49
4/17/2017 12:00 PM 74 99 1.77 0 4.82
4/17/2017 1:00 PM 77 92 2.6 0 3.35
4/17/2017 2:00 PM 78 87 1.97 0 4.21
4/17/2017 3:00 PM 76 91 0.7 0.04 4.05
4/17/2017 4:00 PM 69 93 0.27 0.03 9.17
4/17/2017 5:00 PM 64 100 0.19 0.01 6.24
4/17/2017 6:00 PM 65 100 0.32 0 2.46
4/17/2017 7:00 PM 67 100 0.37 0 3.29
4/17/2017 8:00 PM 66 100 0.09 0 2.27
4/17/2017 9:00 PM 66 100 0 0 6.02
4/17/2017 10:00 PM 64 100 0 0 10.06
4/17/2017 11:00 PM 64 100 0 0 3.15
Data Summary 68 98 10.67 0.08 4.19